Time;durP1;ratioP1;P1;durP2;ratioP2;P2;SDS_P1;SDS_P2;PMS_P1;PMS_P2;Temp;Humidity;BMP_temperature;BMP_pressure;BME280_temperature;BME280_humidity;BME280_pressure;Samples;Min_cycle;Max_cycle;Signal;HPM_P1;HPM_P2
2024/04/08 00:00:23;;;;;;;1.03;0.50;;;;;;;;;;6338013;22;20706;-90
2024/04/08 00:02:50;;;;;;;0.40;0.40;;;;;;;;;;6337844;22;20274;-89
2024/04/08 00:05:17;;;;;;;6.40;0.83;;;;;;;;;;6378811;22;20252;-90
2024/04/08 00:07:44;;;;;;;1.20;1.10;;;;;;;;;;6338802;22;20283;-89
2024/04/08 00:10:10;;;;;;;0.83;0.70;;;;;;;;;;6378497;22;20267;-90
2024/04/08 00:12:38;;;;;;;2.87;1.40;;;;;;;;;;6338160;22;20268;-90
2024/04/08 00:15:05;;;;;;;0.53;0.33;;;;;;;;;;6378345;22;20639;-90
2024/04/08 00:17:32;;;;;;;0.70;0.70;;;;;;;;;;6338608;22;20626;-89
2024/04/08 00:19:58;;;;;;;13.70;1.37;;;;;;;;;;6421272;22;20240;-89
2024/04/08 00:22:24;;;;;;;1.03;0.80;;;;;;;;;;6338279;22;20572;-90
2024/04/08 00:24:53;;;;;;;4.43;0.77;;;;;;;;;;6337679;22;20367;-90
2024/04/08 00:27:19;;;;;;;3.40;1.97;;;;;;;;;;6378133;22;20306;-90
2024/04/08 00:29:46;;;;;;;1.17;1.07;;;;;;;;;;6338098;22;20314;-90
2024/04/08 00:32:12;;;;;;;1.33;1.17;;;;;;;;;;6337072;22;20244;-90
2024/04/08 00:34:39;;;;;;;2.10;0.87;;;;;;;;;;6338724;22;20236;-90
2024/04/08 00:37:05;;;;;;;0.30;0.30;;;;;;;;;;6372582;22;20254;-90
2024/04/08 00:39:32;;;;;;;0.60;0.60;;;;;;;;;;6378526;22;20367;-90
2024/04/08 00:41:58;;;;;;;0.80;0.80;;;;;;;;;;6379856;22;21072;-89
2024/04/08 00:44:28;;;;;;;6.70;1.20;;;;;;;;;;6339620;22;20294;-89
2024/04/08 00:46:54;;;;;;;8.10;1.13;;;;;;;;;;6338464;22;20295;-90
2024/04/08 00:49:21;;;;;;;4.37;2.47;;;;;;;;;;6377903;22;20268;-89
2024/04/08 00:51:47;;;;;;;3.50;0.83;;;;;;;;;;6419708;22;20267;-90
2024/04/08 00:54:13;;;;;;;0.83;0.60;;;;;;;;;;6337289;22;20259;-90
2024/04/08 00:56:40;;;;;;;1.50;1.40;;;;;;;;;;6338012;22;20272;-90
2024/04/08 00:59:08;;;;;;;4.97;0.80;;;;;;;;;;6324995;22;20240;-90
2024/04/08 01:01:34;;;;;;;9.63;0.77;;;;;;;;;;6379683;22;20785;-90
2024/04/08 01:04:00;;;;;;;2.53;0.70;;;;;;;;;;6378392;22;20264;-90
2024/04/08 01:06:26;;;;;;;1.47;0.93;;;;;;;;;;6337490;22;20822;-89
2024/04/08 01:08:53;;;;;;;3.07;1.17;;;;;;;;;;6338327;22;20260;-90
2024/04/08 01:11:19;;;;;;;2.70;1.10;;;;;;;;;;6329125;22;20282;-90
2024/04/08 01:13:45;;;;;;;0.50;0.47;;;;;;;;;;6338272;22;20584;-90
2024/04/08 01:16:11;;;;;;;0.70;0.70;;;;;;;;;;6319278;22;20813;-90
2024/04/08 01:18:38;;;;;;;0.87;0.80;;;;;;;;;;6201073;22;20687;-90
2024/04/08 01:21:04;;;;;;;0.90;0.90;;;;;;;;;;6280001;22;20274;-90
2024/04/08 01:23:37;;;;;;;0.83;0.83;;;;;;;;;;6199944;22;20266;-90
2024/04/08 01:26:06;;;;;;;0.63;0.63;;;;;;;;;;6278638;22;20238;-90
2024/04/08 01:28:32;;;;;;;2.03;1.27;;;;;;;;;;6200856;22;20256;-90
2024/04/08 01:31:02;;;;;;;0.43;0.43;;;;;;;;;;6278902;22;20314;-90
2024/04/08 01:33:28;;;;;;;1.60;0.80;;;;;;;;;;6201592;22;20266;-90
2024/04/08 01:35:59;;;;;;;4.30;0.47;;;;;;;;;;6238774;22;20357;-90
2024/04/08 01:38:26;;;;;;;10.33;0.70;;;;;;;;;;6279303;22;20313;-90
2024/04/08 01:40:52;;;;;;;0.77;0.63;;;;;;;;;;6279700;22;20303;-90
2024/04/08 01:43:18;;;;;;;0.60;0.50;;;;;;;;;;6200092;22;20266;-89
2024/04/08 01:45:44;;;;;;;0.23;0.23;;;;;;;;;;6200419;22;20266;-90
2024/04/08 01:48:13;;;;;;;0.30;0.30;;;;;;;;;;6366808;22;20344;-90
2024/04/08 01:50:39;;;;;;;6.30;0.53;;;;;;;;;;6377335;22;20313;-90
2024/04/08 01:53:05;;;;;;;0.97;0.80;;;;;;;;;;6377531;22;20559;-90
2024/04/08 01:55:32;;;;;;;1.73;0.57;;;;;;;;;;6419642;22;20240;-90
2024/04/08 01:57:58;;;;;;;3.67;1.47;;;;;;;;;;6337506;22;20264;-90
2024/04/08 02:00:24;;;;;;;0.30;0.30;;;;;;;;;;6337528;22;20264;-90
2024/04/08 02:02:50;;;;;;;2.63;0.87;;;;;;;;;;6336839;22;20260;-90
2024/04/08 02:05:17;;;;;;;1.13;0.90;;;;;;;;;;6378147;22;20304;-90
2024/04/08 02:07:44;;;;;;;2.27;2.07;;;;;;;;;;6378861;22;20236;-90
2024/04/08 02:10:11;;;;;;;4.43;1.20;;;;;;;;;;6377084;22;20276;-90
2024/04/08 02:12:37;;;;;;;0.77;0.57;;;;;;;;;;6337500;22;20652;-90
2024/04/08 02:15:07;;;;;;;3.60;0.50;;;;;;;;;;6378296;22;20260;-90
2024/04/08 02:17:33;;;;;;;0.60;0.43;;;;;;;;;;6378142;22;20340;-90
2024/04/08 02:19:59;;;;;;;2.60;1.07;;;;;;;;;;6380918;22;20236;-90
2024/04/08 02:22:29;;;;;;;0.80;0.80;;;;;;;;;;6329210;22;20261;-90
2024/04/08 02:24:55;;;;;;;15.20;2.67;;;;;;;;;;6213111;22;20309;-90
2024/04/08 02:27:21;;;;;;;1.20;1.07;;;;;;;;;;6211285;22;20733;-90
2024/04/08 02:29:47;;;;;;;0.50;0.50;;;;;;;;;;6155422;22;20365;-90
2024/04/08 02:32:13;;;;;;;1.33;0.67;;;;;;;;;;6193855;22;20236;-90
2024/04/08 02:34:40;;;;;;;1.57;1.53;;;;;;;;;;6274178;22;20305;-90
2024/04/08 02:37:06;;;;;;;8.43;1.17;;;;;;;;;;6272766;22;20290;-90
2024/04/08 02:39:32;;;;;;;0.60;0.53;;;;;;;;;;6193909;22;20362;-91
2024/04/08 02:41:58;;;;;;;4.53;0.70;;;;;;;;;;6206780;22;20305;-90
2024/04/08 02:44:24;;;;;;;1.70;1.03;;;;;;;;;;6241139;22;20341;-89
2024/04/08 02:46:50;;;;;;;1.60;1.50;;;;;;;;;;6241792;22;20723;-90
2024/04/08 02:49:17;;;;;;;9.50;1.20;;;;;;;;;;6320493;22;20280;-90
2024/04/08 02:51:43;;;;;;;2.23;1.03;;;;;;;;;;6241392;22;20270;-89
2024/04/08 02:54:09;;;;;;;2.77;0.60;;;;;;;;;;6287346;22;20290;-90
2024/04/08 02:56:35;;;;;;;0.50;0.50;;;;;;;;;;6296606;22;20477;-90
2024/04/08 02:59:01;;;;;;;0.80;0.80;;;;;;;;;;6369121;22;20343;-91
2024/04/08 03:01:28;;;;;;;1.07;0.83;;;;;;;;;;6330433;22;20249;-90
2024/04/08 03:03:54;;;;;;;5.93;0.50;;;;;;;;;;6290852;22;20268;-90
2024/04/08 03:06:20;;;;;;;0.73;0.70;;;;;;;;;;6371523;22;20303;-91
2024/04/08 03:08:46;;;;;;;0.93;0.57;;;;;;;;;;6330523;22;20367;-90
2024/04/08 03:11:15;;;;;;;2.10;0.80;;;;;;;;;;6370732;22;20236;-90
2024/04/08 03:13:41;;;;;;;1.50;1.50;;;;;;;;;;6291319;22;20267;-91
2024/04/08 03:16:08;;;;;;;0.87;0.87;;;;;;;;;;6290364;22;20269;-90
2024/04/08 03:18:36;;;;;;;0.97;0.57;;;;;;;;;;6291560;22;20265;-91
2024/04/08 03:21:04;;;;;;;2.87;1.60;;;;;;;;;;6330002;22;20365;-91
2024/04/08 03:23:30;;;;;;;1.47;0.97;;;;;;;;;;6289808;22;20264;-91
2024/04/08 03:25:57;;;;;;;14.00;1.43;;;;;;;;;;6330891;22;20241;-91
2024/04/08 03:28:23;;;;;;;1.53;0.87;;;;;;;;;;6329001;22;20265;-91
2024/04/08 03:30:49;;;;;;;3.43;0.97;;;;;;;;;;6290395;22;20269;-91
2024/04/08 03:33:16;;;;;;;0.53;0.53;;;;;;;;;;6329966;22;20270;-91
2024/04/08 03:35:44;;;;;;;1.37;0.67;;;;;;;;;;6290662;22;20269;-90
2024/04/08 03:38:14;;;;;;;12.53;0.97;;;;;;;;;;6292670;22;20342;-90
2024/04/08 03:40:40;;;;;;;3.53;0.97;;;;;;;;;;6330539;22;20249;-91
2024/04/08 03:43:06;;;;;;;0.53;0.53;;;;;;;;;;6330312;22;20614;-91
2024/04/08 03:45:33;;;;;;;0.67;0.67;;;;;;;;;;6290391;22;20786;-91
2024/04/08 03:47:59;;;;;;;0.83;0.83;;;;;;;;;;6330393;22;20269;-91
2024/04/08 03:50:28;;;;;;;0.77;0.50;;;;;;;;;;6329851;22;20269;-91
2024/04/08 03:52:54;;;;;;;0.67;0.67;;;;;;;;;;6330768;22;20297;-91
2024/04/08 03:55:27;;;;;;;0.70;0.67;;;;;;;;;;6292119;22;20269;-90
2024/04/08 03:57:53;;;;;;;3.30;1.03;;;;;;;;;;6330246;22;20349;-91
2024/04/08 04:00:19;;;;;;;1.10;1.10;;;;;;;;;;6370711;22;20310;-91
2024/04/08 04:02:46;;;;;;;4.83;1.47;;;;;;;;;;6290199;22;20839;-91
2024/04/08 04:05:12;;;;;;;1.53;1.37;;;;;;;;;;6330608;22;20585;-90
2024/04/08 04:07:38;;;;;;;1.47;1.20;;;;;;;;;;6330673;22;20623;-91
2024/04/08 04:10:08;;;;;;;0.80;0.77;;;;;;;;;;6330844;22;21092;-91
2024/04/08 04:12:38;;;;;;;1.67;1.57;;;;;;;;;;6290259;22;20269;-92
2024/04/08 04:15:12;;;;;;;2.57;0.93;;;;;;;;;;6329845;22;20296;-91
2024/04/08 04:17:42;;;;;;;0.87;0.87;;;;;;;;;;6330278;22;20269;-91
2024/04/08 04:20:12;;;;;;;0.93;0.60;;;;;;;;;;6330053;22;20233;-91
2024/04/08 04:22:38;;;;;;;1.50;1.10;;;;;;;;;;6291019;22;20237;-91
2024/04/08 04:25:05;;;;;;;0.67;0.60;;;;;;;;;;6329172;22;20570;-91
2024/04/08 04:27:31;;;;;;;0.57;0.57;;;;;;;;;;6329493;22;20288;-91
2024/04/08 04:29:57;;;;;;;2.00;1.50;;;;;;;;;;6329416;22;20269;-90
2024/04/08 04:32:23;;;;;;;0.77;0.67;;;;;;;;;;6329092;22;20703;-91
2024/04/08 04:34:55;;;;;;;10.97;1.40;;;;;;;;;;6290633;22;20244;-91
2024/04/08 04:37:22;;;;;;;0.43;0.43;;;;;;;;;;6329003;22;20268;-91
2024/04/08 04:39:48;;;;;;;0.63;0.57;;;;;;;;;;6330236;22;20360;-90
2024/04/08 04:42:14;;;;;;;1.77;0.97;;;;;;;;;;6329304;22;20343;-90
2024/04/08 04:44:40;;;;;;;1.17;0.53;;;;;;;;;;6329479;22;20300;-91
2024/04/08 04:47:07;;;;;;;2.77;1.63;;;;;;;;;;6329214;22;20249;-91
2024/04/08 04:49:33;;;;;;;1.00;0.83;;;;;;;;;;6288933;22;20313;-91
2024/04/08 04:52:02;;;;;;;1.27;0.80;;;;;;;;;;6289498;22;20746;-91
2024/04/08 04:54:28;;;;;;;3.20;1.50;;;;;;;;;;6328915;22;20771;-91
2024/04/08 04:56:54;;;;;;;0.87;0.60;;;;;;;;;;6290537;22;20597;-91
2024/04/08 04:59:22;;;;;;;3.63;0.53;;;;;;;;;;6290233;22;20279;-91
2024/04/08 05:01:48;;;;;;;0.70;0.70;;;;;;;;;;6330663;22;20667;-91
2024/04/08 05:04:14;;;;;;;1.90;0.80;;;;;;;;;;6329494;22;20313;-91
2024/04/08 06:52:46;;;;;;;2.37;2.17;;;;;;;;;;6361215;22;20250;-90
2024/04/08 06:55:12;;;;;;;3.80;1.67;;;;;;;;;;6242322;22;20270;-90
2024/04/08 06:57:42;;;;;;;5.43;2.37;;;;;;;;;;6281344;22;20381;-89
2024/04/08 07:00:09;;;;;;;1.90;1.23;;;;;;;;;;6343222;22;20344;-90
2024/04/08 07:02:36;;;;;;;3.07;2.37;;;;;;;;;;6281496;22;20708;-89
2024/04/08 07:05:02;;;;;;;6.10;1.60;;;;;;;;;;6240520;22;20280;-89
2024/04/08 07:07:31;;;;;;;2.50;2.13;;;;;;;;;;6241993;22;20964;-89
2024/04/08 07:09:57;;;;;;;1.90;1.37;;;;;;;;;;6360216;22;20269;-89
2024/04/08 07:12:23;;;;;;;3.90;1.30;;;;;;;;;;6321096;22;20325;-89
2024/04/08 07:14:53;;;;;;;2.40;1.57;;;;;;;;;;6243738;22;20270;-90
2024/04/08 07:17:20;;;;;;;2.30;2.10;;;;;;;;;;6321498;22;20234;-90
2024/04/08 07:19:46;;;;;;;2.63;2.17;;;;;;;;;;6279844;22;20268;-90
2024/04/08 07:22:13;;;;;;;5.57;2.07;;;;;;;;;;6314677;22;20325;-91
2024/04/08 07:24:40;;;;;;;3.83;1.57;;;;;;;;;;6240371;22;20346;-91
2024/04/08 07:27:07;;;;;;;2.00;1.37;;;;;;;;;;6201191;22;20274;-91
2024/04/08 07:29:33;;;;;;;10.17;2.87;;;;;;;;;;6239190;22;20297;-90
2024/04/08 07:32:00;;;;;;;3.50;3.10;;;;;;;;;;6200825;22;20246;-92
2024/04/08 07:34:29;;;;;;;1.80;1.67;;;;;;;;;;6319213;22;20258;-90
2024/04/08 07:36:55;;;;;;;2.40;1.57;;;;;;;;;;6319379;22;20278;-90
2024/04/08 07:39:21;;;;;;;5.27;2.60;;;;;;;;;;6200122;22;20361;-91
2024/04/08 07:41:47;;;;;;;5.90;2.37;;;;;;;;;;6200615;22;20307;-88
2024/04/08 07:44:13;;;;;;;6.40;2.43;;;;;;;;;;6203124;22;20234;-88
2024/04/08 07:46:39;;;;;;;4.30;1.87;;;;;;;;;;6247670;22;20288;-89
2024/04/08 07:49:05;;;;;;;4.97;2.30;;;;;;;;;;6239341;22;20304;-89
2024/04/08 07:51:33;;;;;;;2.10;1.90;;;;;;;;;;6340472;22;20265;-90
2024/04/08 07:54:00;;;;;;;3.47;2.23;;;;;;;;;;6329024;22;20349;-90
2024/04/08 07:56:26;;;;;;;4.37;1.83;;;;;;;;;;6288260;22;20264;-88
2024/04/08 07:58:52;;;;;;;3.80;2.13;;;;;;;;;;6288860;22;20249;-89
2024/04/08 08:01:18;;;;;;;3.80;1.67;;;;;;;;;;6329189;22;20269;-89
2024/04/08 08:03:45;;;;;;;3.60;1.67;;;;;;;;;;6327725;22;21139;-89
2024/04/08 08:06:13;;;;;;;7.43;1.23;;;;;;;;;;6265459;22;20269;-90
2024/04/08 08:08:40;;;;;;;6.70;1.63;;;;;;;;;;6293922;22;20569;-89
2024/04/08 08:11:12;;;;;;;2.73;1.43;;;;;;;;;;6329274;22;20241;-89
2024/04/08 08:13:41;;;;;;;4.17;1.97;;;;;;;;;;6290717;22;20250;-89
2024/04/08 08:16:07;;;;;;;3.77;2.07;;;;;;;;;;6329555;22;20277;-89
2024/04/08 08:18:34;;;;;;;3.40;2.10;;;;;;;;;;6328782;22;20269;-89
2024/04/08 08:21:02;;;;;;;8.20;2.17;;;;;;;;;;6329377;22;20307;-89
2024/04/08 08:23:31;;;;;;;3.50;2.17;;;;;;;;;;6288433;22;20287;-89
2024/04/08 08:25:58;;;;;;;2.60;2.00;;;;;;;;;;6369298;22;20625;-88
2024/04/08 08:28:24;;;;;;;5.10;1.73;;;;;;;;;;6328237;22;20364;-89
2024/04/08 08:34:33;;;;;;;1.65;1.55;;;;;;;;;;6371165;22;20304;-89
2024/04/08 08:37:00;;;;;;;2.42;1.38;;;;;;;;;;6327676;22;20277;-88
2024/04/08 08:39:26;;;;;;;8.65;1.98;;;;;;;;;;6288428;22;20826;-89
2024/04/08 08:41:54;;;;;;;2.78;1.73;;;;;;;;;;6288500;22;20683;-89
2024/04/08 08:44:21;;;;;;;3.22;1.75;;;;;;;;;;6327913;22;20276;-89
2024/04/08 08:46:48;;;;;;;1.98;1.60;;;;;;;;;;6368212;22;20344;-90
2024/04/08 08:49:17;;;;;;;1.80;1.70;;;;;;;;;;6287045;22;20299;-90
2024/04/08 08:51:43;;;;;;;4.90;2.15;;;;;;;;;;6402053;22;20314;-89
2024/04/08 08:54:12;;;;;;;2.20;1.45;;;;;;;;;;6376599;22;20315;-89
2024/04/08 08:56:38;;;;;;;1.88;1.23;;;;;;;;;;6337599;22;20256;-89
2024/04/08 08:59:06;;;;;;;4.03;1.27;;;;;;;;;;6377438;22;20236;-91
2024/04/08 09:01:33;;;;;;;1.48;1.25;;;;;;;;;;6338336;22;20324;-89
2024/04/08 09:04:04;;;;;;;3.95;1.17;;;;;;;;;;6376662;22;20302;-89
2024/04/08 09:06:30;;;;;;;2.22;1.35;;;;;;;;;;6376905;22;20263;-90
2024/04/08 09:08:59;;;;;;;6.78;1.05;;;;;;;;;;6336445;22;20327;-88
2024/04/08 09:11:25;;;;;;;7.53;2.10;;;;;;;;;;6376895;22;20376;-89
2024/04/08 09:13:54;;;;;;;2.40;1.33;;;;;;;;;;6377357;22;20251;-91
2024/04/08 09:16:23;;;;;;;5.32;1.52;;;;;;;;;;6337263;22;20267;-90
2024/04/08 09:18:50;;;;;;;3.58;1.42;;;;;;;;;;6376773;22;20327;-89
2024/04/08 09:21:16;;;;;;;5.53;1.75;;;;;;;;;;6417486;22;20689;-89
2024/04/08 09:23:45;;;;;;;4.68;1.25;;;;;;;;;;6377388;22;20271;-93
2024/04/08 09:26:11;;;;;;;4.45;1.80;;;;;;;;;;6336994;22;20861;-92
2024/04/08 09:28:40;;;;;;;2.42;0.80;;;;;;;;;;6377411;22;20236;-91
2024/04/08 09:31:07;;;;;;;2.10;1.55;;;;;;;;;;6336667;22;20566;-91
2024/04/08 09:33:36;;;;;;;3.95;1.30;;;;;;;;;;6377405;22;20268;-92
2024/04/08 09:36:20;;;;;;;;;;;;;;;;;;;;;
2024/04/08 09:38:51;;;;;;;7.32;1.38;;;;;;;;;;6383376;22;20298;-92
2024/04/08 09:41:17;;;;;;;5.45;1.58;;;;;;;;;;6336952;22;20357;-92
2024/04/08 09:43:45;;;;;;;4.90;1.45;;;;;;;;;;6377451;22;20551;-91
2024/04/08 09:46:12;;;;;;;4.38;1.42;;;;;;;;;;6378039;22;20276;-91
2024/04/08 09:48:38;;;;;;;8.38;1.15;;;;;;;;;;6376605;22;20667;-91
2024/04/08 09:51:09;;;;;;;3.28;2.00;;;;;;;;;;6335829;22;20347;-92
2024/04/08 09:53:35;;;;;;;3.20;1.88;;;;;;;;;;6376498;22;20302;-91
2024/04/08 09:56:03;;;;;;;7.45;2.10;;;;;;;;;;6336608;22;20673;-91
2024/04/08 09:58:35;;;;;;;5.93;1.85;;;;;;;;;;6376724;22;20248;-90
2024/04/08 10:01:05;;;;;;;3.25;1.13;;;;;;;;;;6336037;22;20271;-90
2024/04/08 10:03:50;;;;;;;3.47;1.35;;;;;;;;;;6365995;22;20260;-91
2024/04/08 10:06:18;;;;;;;3.25;1.85;;;;;;;;;;6326192;22;20277;-91
2024/04/08 10:08:44;;;;;;;5.10;1.67;;;;;;;;;;6313249;22;20420;-90
2024/04/08 10:11:16;;;;;;;6.53;1.30;;;;;;;;;;6287333;22;20237;-91
2024/04/08 10:13:49;;;;;;;4.47;1.27;;;;;;;;;;6286892;22;20264;-91
2024/04/08 10:16:15;;;;;;;4.25;1.33;;;;;;;;;;6325648;22;20632;-90
2024/04/08 10:18:54;;;;;;;8.88;1.00;;;;;;;;;;6367200;22;20374;-90
2024/04/08 10:21:21;;;;;;;2.85;0.57;;;;;;;;;;6366306;22;20303;-90
2024/04/08 10:23:47;;;;;;;3.22;1.20;;;;;;;;;;6325741;22;20745;-90
2024/04/08 10:26:14;;;;;;;1.95;0.90;;;;;;;;;;6367112;22;20263;-91
2024/04/08 10:28:41;;;;;;;2.05;1.17;;;;;;;;;;6325434;22;20249;-89
2024/04/08 10:31:11;;;;;;;3.22;0.77;;;;;;;;;;6325696;22;20307;-90
2024/04/08 10:33:37;;;;;;;3.97;1.23;;;;;;;;;;6319268;22;20261;-91
2024/04/08 10:36:04;;;;;;;2.30;1.42;;;;;;;;;;6335341;22;20280;-89
2024/04/08 10:38:30;;;;;;;5.68;1.27;;;;;;;;;;6410866;22;20285;-88
2024/04/08 10:40:56;;;;;;;1.97;1.43;;;;;;;;;;6379194;22;20336;-87
2024/04/08 10:43:23;;;;;;;2.45;1.85;;;;;;;;;;6337715;22;20268;-89
2024/04/08 10:45:54;;;;;;;4.55;1.95;;;;;;;;;;6378441;22;20379;-90
2024/04/08 10:48:21;;;;;;;4.30;1.70;;;;;;;;;;6378896;22;20693;-90
2024/04/08 10:50:50;;;;;;;2.78;1.38;;;;;;;;;;6337802;22;20328;-89
2024/04/08 10:53:17;;;;;;;3.37;1.50;;;;;;;;;;6378537;22;20236;-91
2024/04/08 10:55:53;;;;;;;3.10;1.80;;;;;;;;;;6417623;22;20267;-90
2024/04/08 10:58:19;;;;;;;2.40;1.43;;;;;;;;;;6381521;22;20279;-88
2024/04/08 11:00:45;;;;;;;2.35;1.40;;;;;;;;;;6319619;22;20847;-90
2024/04/08 11:03:12;;;;;;;1.53;1.13;;;;;;;;;;6279467;22;20577;-90
2024/04/08 11:05:39;;;;;;;2.23;1.20;;;;;;;;;;6201433;22;20262;-90
2024/04/08 11:08:06;;;;;;;5.23;1.20;;;;;;;;;;6200585;22;20277;-90
2024/04/08 11:10:32;;;;;;;3.10;1.30;;;;;;;;;;6200017;22;20277;-89
2024/04/08 11:12:59;;;;;;;1.90;1.63;;;;;;;;;;6200259;22;20298;-89
2024/04/08 11:15:29;;;;;;;1.33;1.23;;;;;;;;;;6240279;22;20296;-90
2024/04/08 11:18:05;;;;;;;4.13;1.10;;;;;;;;;;6279197;22;20297;-91
2024/04/08 11:20:31;;;;;;;4.13;1.33;;;;;;;;;;6279453;22;20270;-90
2024/04/08 11:23:02;;;;;;;2.30;1.50;;;;;;;;;;6201202;22;20261;-90
2024/04/08 11:25:28;;;;;;;2.77;1.53;;;;;;;;;;6279489;22;20280;-90
2024/04/08 11:27:56;;;;;;;4.47;1.67;;;;;;;;;;6278829;22;20426;-91
2024/04/08 11:30:22;;;;;;;1.77;1.27;;;;;;;;;;6279774;22;20293;-90
2024/04/08 11:32:48;;;;;;;2.30;1.60;;;;;;;;;;6199894;22;20258;-90
2024/04/08 11:35:17;;;;;;;1.47;1.37;;;;;;;;;;6278974;22;21211;-90
2024/04/08 11:37:43;;;;;;;3.83;2.03;;;;;;;;;;6308422;22;20262;-90
2024/04/08 11:40:09;;;;;;;2.50;1.40;;;;;;;;;;6337469;22;20307;-90
2024/04/08 11:42:35;;;;;;;1.40;1.30;;;;;;;;;;6337405;22;20298;-90
2024/04/08 11:45:03;;;;;;;1.47;1.10;;;;;;;;;;6378075;22;20264;-90
2024/04/08 11:47:29;;;;;;;2.03;1.50;;;;;;;;;;6377986;22;20302;-89
2024/04/08 11:49:56;;;;;;;6.57;1.53;;;;;;;;;;6419812;22;20670;-89
2024/04/08 11:52:23;;;;;;;3.57;1.10;;;;;;;;;;6338783;22;20296;-91
2024/04/08 11:54:49;;;;;;;5.53;1.57;;;;;;;;;;6377914;22;20268;-90
2024/04/08 11:57:16;;;;;;;2.77;1.90;;;;;;;;;;6378569;22;20264;-90
2024/04/08 11:59:42;;;;;;;5.53;1.60;;;;;;;;;;6338131;22;20267;-91
2024/04/08 12:02:08;;;;;;;4.90;1.63;;;;;;;;;;6377746;22;20240;-90
2024/04/08 12:04:35;;;;;;;3.63;2.03;;;;;;;;;;6338084;22;20240;-90
2024/04/08 12:07:02;;;;;;;1.00;1.00;;;;;;;;;;6336887;22;20264;-89
2024/04/08 12:09:28;;;;;;;3.53;1.70;;;;;;;;;;6377363;22;20331;-89
2024/04/08 12:11:54;;;;;;;1.00;0.90;;;;;;;;;;6378148;22;20264;-90
2024/04/08 12:14:20;;;;;;;5.70;1.43;;;;;;;;;;6337019;22;20536;-90
2024/04/08 12:16:47;;;;;;;3.67;1.67;;;;;;;;;;6377728;22;20236;-90
2024/04/08 12:19:13;;;;;;;3.57;1.73;;;;;;;;;;6336456;22;20295;-89
2024/04/08 12:21:39;;;;;;;4.30;1.73;;;;;;;;;;6336786;22;20308;-89
2024/04/08 12:24:05;;;;;;;1.43;1.33;;;;;;;;;;6377443;22;20260;-90
2024/04/08 12:26:31;;;;;;;1.40;1.30;;;;;;;;;;6336107;22;20268;-89
2024/04/08 12:29:00;;;;;;;3.83;1.70;;;;;;;;;;6375944;22;20282;-89
2024/04/08 12:31:26;;;;;;;3.07;2.20;;;;;;;;;;6337600;22;20268;-89
2024/04/08 12:33:52;;;;;;;1.90;1.50;;;;;;;;;;6336956;22;20740;-89
2024/04/08 12:36:18;;;;;;;3.53;1.60;;;;;;;;;;6336458;22;20556;-90
2024/04/08 12:38:44;;;;;;;3.33;1.93;;;;;;;;;;6377573;22;20371;-89
2024/04/08 12:41:15;;;;;;;4.57;2.30;;;;;;;;;;6377477;22;20248;-89
2024/04/08 12:43:44;;;;;;;3.83;1.97;;;;;;;;;;6337875;22;20247;-88
2024/04/08 12:46:10;;;;;;;2.20;1.70;;;;;;;;;;6376867;22;20302;-90
2024/04/08 12:48:36;;;;;;;4.83;1.57;;;;;;;;;;6336839;22;20307;-89
2024/04/08 12:51:02;;;;;;;2.33;2.13;;;;;;;;;;6417926;22;20578;-90
2024/04/08 12:53:32;;;;;;;4.53;1.67;;;;;;;;;;6339480;22;20259;-90
2024/04/08 12:55:58;;;;;;;6.67;3.10;;;;;;;;;;6339604;22;20237;-91
2024/04/08 12:58:27;;;;;;;2.83;2.30;;;;;;;;;;6337687;22;20268;-89
2024/04/08 13:00:53;;;;;;;4.07;2.33;;;;;;;;;;6377851;22;20267;-89
2024/04/08 13:03:19;;;;;;;7.53;2.53;;;;;;;;;;6376431;22;20371;-89
2024/04/08 13:05:49;;;;;;;3.60;2.83;;;;;;;;;;6377571;22;20312;-90
2024/04/08 13:08:18;;;;;;;2.77;2.03;;;;;;;;;;6377357;22;20248;-90
2024/04/08 13:10:44;;;;;;;4.43;2.97;;;;;;;;;;6378270;22;20232;-89
2024/04/08 13:13:10;;;;;;;2.67;2.03;;;;;;;;;;6336346;22;20302;-88
2024/04/08 13:15:36;;;;;;;5.27;2.50;;;;;;;;;;6336644;22;20299;-91
2024/04/08 13:18:02;;;;;;;4.03;2.17;;;;;;;;;;6336980;22;20268;-89
2024/04/08 13:20:28;;;;;;;3.40;2.63;;;;;;;;;;6336631;22;20630;-91
2024/04/08 13:22:57;;;;;;;2.87;2.47;;;;;;;;;;6337970;22;20244;-90
2024/04/08 13:25:23;;;;;;;3.40;2.70;;;;;;;;;;6337548;22;20366;-90
2024/04/08 13:27:50;;;;;;;4.67;1.97;;;;;;;;;;6377885;22;20268;-91
2024/04/08 13:30:16;;;;;;;3.90;2.60;;;;;;;;;;6340970;22;20267;-91
2024/04/08 13:32:42;;;;;;;2.20;2.00;;;;;;;;;;6381220;22;20811;-91
2024/04/08 13:35:08;;;;;;;2.00;1.77;;;;;;;;;;6378920;22;20282;-91
2024/04/08 13:37:35;;;;;;;3.53;1.43;;;;;;;;;;6378652;22;20232;-92
2024/04/08 13:40:05;;;;;;;1.57;1.47;;;;;;;;;;6379784;22;20268;-90
2024/04/08 13:42:31;;;;;;;5.07;1.80;;;;;;;;;;6337750;22;20609;-91
2024/04/08 13:44:57;;;;;;;1.90;1.50;;;;;;;;;;6336747;22;20264;-91
2024/04/08 13:47:27;;;;;;;1.70;1.60;;;;;;;;;;6335832;22;20338;-90
2024/04/08 13:49:54;;;;;;;1.70;1.60;;;;;;;;;;6338427;22;20666;-90
2024/04/08 13:52:20;;;;;;;2.00;1.90;;;;;;;;;;6337324;22;20264;-92
2024/04/08 13:54:47;;;;;;;5.80;2.27;;;;;;;;;;6377664;22;20275;-90
2024/04/08 13:57:16;;;;;;;3.53;2.00;;;;;;;;;;6376626;22;20268;-90
2024/04/08 13:59:42;;;;;;;3.03;1.97;;;;;;;;;;6377162;22;20728;-89
2024/04/08 14:02:11;;;;;;;4.37;2.10;;;;;;;;;;6377970;22;20275;-91
2024/04/08 14:04:37;;;;;;;5.67;2.07;;;;;;;;;;6421786;22;20232;-90
2024/04/08 14:07:07;;;;;;;5.00;2.67;;;;;;;;;;6336930;22;20276;-91
2024/04/08 14:09:33;;;;;;;1.90;1.80;;;;;;;;;;6377769;22;20287;-89
2024/04/08 14:11:59;;;;;;;3.40;1.97;;;;;;;;;;6336026;22;20331;-92
2024/04/08 14:14:25;;;;;;;4.50;2.50;;;;;;;;;;6339646;22;20314;-89
2024/04/08 14:16:52;;;;;;;3.60;2.37;;;;;;;;;;6338512;22;20232;-89
2024/04/08 14:19:18;;;;;;;2.23;1.87;;;;;;;;;;6380492;22;20280;-90
2024/04/08 14:21:44;;;;;;;3.63;2.50;;;;;;;;;;6337969;22;20324;-89
2024/04/08 14:24:10;;;;;;;2.87;2.17;;;;;;;;;;6338637;22;20303;-89
2024/04/08 14:26:36;;;;;;;2.20;2.10;;;;;;;;;;6338523;22;20302;-92
2024/04/08 14:29:05;;;;;;;2.77;2.03;;;;;;;;;;6339966;22;20232;-92
2024/04/08 14:31:31;;;;;;;2.90;2.60;;;;;;;;;;6379260;22;20339;-90
2024/04/08 14:33:57;;;;;;;4.43;2.10;;;;;;;;;;6419776;22;20717;-90
2024/04/08 14:36:24;;;;;;;4.33;2.80;;;;;;;;;;6320411;22;20292;-90
2024/04/08 14:38:51;;;;;;;3.60;1.93;;;;;;;;;;6279737;22;20266;-90
2024/04/08 14:41:18;;;;;;;2.83;2.63;;;;;;;;;;6201666;22;20277;-90
2024/04/08 14:43:45;;;;;;;4.70;1.47;;;;;;;;;;6280252;22;20230;-90
2024/04/08 14:46:11;;;;;;;2.43;2.17;;;;;;;;;;6281035;22;20321;-93
2024/04/08 14:48:39;;;;;;;2.43;2.23;;;;;;;;;;6280072;22;20346;-90
2024/04/08 14:51:08;;;;;;;2.43;1.73;;;;;;;;;;6240860;22;20309;-90
2024/04/08 14:53:34;;;;;;;2.30;1.87;;;;;;;;;;6280139;22;20800;-91
2024/04/08 14:56:00;;;;;;;1.83;1.63;;;;;;;;;;6202873;22;20238;-90
2024/04/08 14:58:26;;;;;;;3.07;2.00;;;;;;;;;;6200525;22;20351;-91
2024/04/08 15:00:56;;;;;;;1.87;1.60;;;;;;;;;;6280457;22;20294;-91
2024/04/08 15:03:23;;;;;;;1.60;1.50;;;;;;;;;;6279139;22;20266;-91
2024/04/08 15:05:49;;;;;;;2.83;1.50;;;;;;;;;;6201350;22;20346;-92
2024/04/08 15:08:17;;;;;;;2.20;1.83;;;;;;;;;;6239835;22;20544;-91
2024/04/08 15:10:46;;;;;;;2.13;1.57;;;;;;;;;;6203355;22;20239;-91
2024/04/08 15:13:12;;;;;;;1.57;1.47;;;;;;;;;;6301743;22;21116;-91
2024/04/08 15:15:39;;;;;;;6.33;1.93;;;;;;;;;;6335620;22;20343;-91
2024/04/08 15:18:11;;;;;;;1.47;1.37;;;;;;;;;;6337824;22;20255;-91
2024/04/08 15:20:40;;;;;;;2.47;2.27;;;;;;;;;;6340851;22;20363;-91
2024/04/08 15:23:06;;;;;;;1.67;1.57;;;;;;;;;;6337427;22;20236;-91
2024/04/08 15:25:32;;;;;;;1.37;1.27;;;;;;;;;;6337448;22;20275;-91
2024/04/08 15:27:58;;;;;;;2.00;1.50;;;;;;;;;;6338452;22;20569;-91
2024/04/08 15:30:24;;;;;;;2.07;1.87;;;;;;;;;;6377824;22;20264;-89
2024/04/08 15:32:50;;;;;;;1.57;1.40;;;;;;;;;;6337688;22;20264;-90
2024/04/08 15:35:18;;;;;;;1.77;1.20;;;;;;;;;;6336607;22;20267;-90
2024/04/08 15:37:44;;;;;;;1.47;1.30;;;;;;;;;;6377968;22;20339;-88
2024/04/08 15:40:10;;;;;;;21.60;2.53;;;;;;;;;;6336075;22;20267;-86
2024/04/08 15:42:37;;;;;;;1.80;1.57;;;;;;;;;;6336996;22;20667;-87
2024/04/08 15:45:04;;;;;;;1.93;1.70;;;;;;;;;;6336725;22;20264;-91
2024/04/08 15:47:30;;;;;;;3.10;2.00;;;;;;;;;;6377762;22;20306;-89
2024/04/08 15:49:56;;;;;;;1.63;1.53;;;;;;;;;;6377648;22;20272;-89
2024/04/08 15:52:24;;;;;;;3.10;1.90;;;;;;;;;;6336722;22;20331;-87
2024/04/08 15:54:52;;;;;;;2.70;1.43;;;;;;;;;;6337493;22;20268;-89
2024/04/08 15:57:21;;;;;;;1.57;1.40;;;;;;;;;;6377819;22;20361;-90
2024/04/08 15:59:48;;;;;;;2.47;2.27;;;;;;;;;;6371484;22;20255;-90
2024/04/08 16:02:15;;;;;;;1.83;1.20;;;;;;;;;;6377336;22;20271;-88
2024/04/08 16:04:42;;;;;;;3.13;1.37;;;;;;;;;;6377949;22;20582;-87
2024/04/08 16:07:08;;;;;;;2.60;1.83;;;;;;;;;;6337127;22;20268;-90
2024/04/08 16:09:37;;;;;;;1.53;1.43;;;;;;;;;;6378481;22;20268;-90
2024/04/08 16:12:03;;;;;;;1.60;1.50;;;;;;;;;;6337229;22;20319;-90
2024/04/08 16:14:29;;;;;;;1.87;1.77;;;;;;;;;;6337245;22;20272;-90
2024/04/08 16:16:55;;;;;;;2.53;1.70;;;;;;;;;;6419877;22;20769;-90
2024/04/08 16:19:22;;;;;;;2.10;1.87;;;;;;;;;;6377848;22;20307;-90
2024/04/08 16:21:48;;;;;;;3.93;2.33;;;;;;;;;;6336985;22;20311;-91
2024/04/08 16:24:15;;;;;;;2.83;2.00;;;;;;;;;;6337195;22;20263;-90
2024/04/08 16:26:41;;;;;;;2.00;1.70;;;;;;;;;;6336464;22;20852;-91
2024/04/08 16:29:07;;;;;;;1.93;1.83;;;;;;;;;;6377100;22;20240;-89
2024/04/08 16:31:33;;;;;;;3.73;2.30;;;;;;;;;;6377710;22;20674;-89